sensor_id;sensor_type;location;lat;lon;timestamp;temperature;humidity
3919;DHT22;1974;48.670;8.994;2024-01-07T00:01:08;5.30;99.90
3919;DHT22;1974;48.670;8.994;2024-01-07T00:03:37;5.30;99.90
3919;DHT22;1974;48.670;8.994;2024-01-07T00:06:06;5.30;99.90
3919;DHT22;1974;48.670;8.994;2024-01-07T00:08:33;5.30;99.90
3919;DHT22;1974;48.670;8.994;2024-01-07T00:11:00;5.30;99.90
3919;DHT22;1974;48.670;8.994;2024-01-07T00:13:26;5.30;99.90
3919;DHT22;1974;48.670;8.994;2024-01-07T00:15:53;5.30;99.90
3919;DHT22;1974;48.670;8.994;2024-01-07T00:18:21;5.30;99.90
3919;DHT22;1974;48.670;8.994;2024-01-07T00:20:50;5.30;99.90
3919;DHT22;1974;48.670;8.994;2024-01-07T00:23:17;5.30;99.90
3919;DHT22;1974;48.670;8.994;2024-01-07T00:25:43;5.30;99.90
3919;DHT22;1974;48.670;8.994;2024-01-07T00:28:10;5.30;99.90
3919;DHT22;1974;48.670;8.994;2024-01-07T00:30:37;5.30;99.90
3919;DHT22;1974;48.670;8.994;2024-01-07T00:33:04;5.30;99.90
3919;DHT22;1974;48.670;8.994;2024-01-07T00:35:30;5.30;99.90
3919;DHT22;1974;48.670;8.994;2024-01-07T00:37:58;5.30;99.90
3919;DHT22;1974;48.670;8.994;2024-01-07T00:40:25;5.40;99.90
3919;DHT22;1974;48.670;8.994;2024-01-07T00:42:52;5.40;99.90
3919;DHT22;1974;48.670;8.994;2024-01-07T00:45:19;5.40;99.90
3919;DHT22;1974;48.670;8.994;2024-01-07T00:47:47;5.30;99.90
3919;DHT22;1974;48.670;8.994;2024-01-07T00:50:13;5.30;99.90
3919;DHT22;1974;48.670;8.994;2024-01-07T00:52:41;5.30;99.90
3919;DHT22;1974;48.670;8.994;2024-01-07T00:55:10;5.30;99.90
3919;DHT22;1974;48.670;8.994;2024-01-07T00:57:36;5.30;99.90
3919;DHT22;1974;48.670;8.994;2024-01-07T01:00:05;5.30;99.90
3919;DHT22;1974;48.670;8.994;2024-01-07T01:02:33;5.30;99.90
3919;DHT22;1974;48.670;8.994;2024-01-07T01:05:01;5.30;99.90
3919;DHT22;1974;48.670;8.994;2024-01-07T01:07:28;5.20;99.90
3919;DHT22;1974;48.670;8.994;2024-01-07T01:09:54;5.30;99.90
3919;DHT22;1974;48.670;8.994;2024-01-07T01:12:22;5.30;99.90
3919;DHT22;1974;48.670;8.994;2024-01-07T01:14:49;5.30;99.90
3919;DHT22;1974;48.670;8.994;2024-01-07T01:17:16;5.20;99.90
3919;DHT22;1974;48.670;8.994;2024-01-07T01:19:42;5.20;99.90
3919;DHT22;1974;48.670;8.994;2024-01-07T01:22:09;5.20;99.90
3919;DHT22;1974;48.670;8.994;2024-01-07T01:24:36;5.10;99.90
3919;DHT22;1974;48.670;8.994;2024-01-07T01:27:03;5.10;99.90
3919;DHT22;1974;48.670;8.994;2024-01-07T01:29:31;5.10;99.90
3919;DHT22;1974;48.670;8.994;2024-01-07T01:31:57;5.20;99.90
3919;DHT22;1974;48.670;8.994;2024-01-07T01:34:24;5.10;99.90
3919;DHT22;1974;48.670;8.994;2024-01-07T01:36:51;5.10;99.90
3919;DHT22;1974;48.670;8.994;2024-01-07T01:39:17;5.20;99.90
3919;DHT22;1974;48.670;8.994;2024-01-07T01:41:44;5.20;99.90
3919;DHT22;1974;48.670;8.994;2024-01-07T01:44:11;5.10;99.90
3919;DHT22;1974;48.670;8.994;2024-01-07T01:46:39;5.10;99.90
3919;DHT22;1974;48.670;8.994;2024-01-07T01:49:06;5.10;99.90
3919;DHT22;1974;48.670;8.994;2024-01-07T01:51:33;5.10;99.90
3919;DHT22;1974;48.670;8.994;2024-01-07T01:54:00;5.10;99.90
3919;DHT22;1974;48.670;8.994;2024-01-07T01:56:29;5.00;99.90
3919;DHT22;1974;48.670;8.994;2024-01-07T01:58:56;5.00;99.90
3919;DHT22;1974;48.670;8.994;2024-01-07T02:01:23;5.00;99.90
3919;DHT22;1974;48.670;8.994;2024-01-07T02:03:51;5.10;99.90
3919;DHT22;1974;48.670;8.994;2024-01-07T02:06:19;5.00;99.90
3919;DHT22;1974;48.670;8.994;2024-01-07T02:08:47;5.00;99.90
3919;DHT22;1974;48.670;8.994;2024-01-07T02:11:15;5.00;99.90
3919;DHT22;1974;48.670;8.994;2024-01-07T02:13:42;5.00;99.90
3919;DHT22;1974;48.670;8.994;2024-01-07T02:16:09;5.00;99.90
3919;DHT22;1974;48.670;8.994;2024-01-07T02:18:35;5.00;99.90
3919;DHT22;1974;48.670;8.994;2024-01-07T02:21:04;4.90;99.90
3919;DHT22;1974;48.670;8.994;2024-01-07T02:23:31;5.00;99.90
3919;DHT22;1974;48.670;8.994;2024-01-07T02:25:59;4.90;99.90
3919;DHT22;1974;48.670;8.994;2024-01-07T02:28:26;4.90;99.90
3919;DHT22;1974;48.670;8.994;2024-01-07T02:30:52;4.90;99.90
3919;DHT22;1974;48.670;8.994;2024-01-07T02:33:19;4.90;99.90
3919;DHT22;1974;48.670;8.994;2024-01-07T02:35:46;4.80;99.90
3919;DHT22;1974;48.670;8.994;2024-01-07T02:38:12;4.80;99.90
3919;DHT22;1974;48.670;8.994;2024-01-07T02:40:39;4.90;99.90
3919;DHT22;1974;48.670;8.994;2024-01-07T02:43:08;4.90;99.90
3919;DHT22;1974;48.670;8.994;2024-01-07T02:45:34;4.90;99.90
3919;DHT22;1974;48.670;8.994;2024-01-07T02:48:01;4.90;99.90
3919;DHT22;1974;48.670;8.994;2024-01-07T02:50:28;4.90;99.90
3919;DHT22;1974;48.670;8.994;2024-01-07T02:52:54;4.80;99.90
3919;DHT22;1974;48.670;8.994;2024-01-07T02:55:21;4.80;99.90
3919;DHT22;1974;48.670;8.994;2024-01-07T02:57:48;4.80;99.90
3919;DHT22;1974;48.670;8.994;2024-01-07T03:00:16;4.80;99.90
3919;DHT22;1974;48.670;8.994;2024-01-07T03:02:44;4.80;99.90
3919;DHT22;1974;48.670;8.994;2024-01-07T03:05:10;4.80;99.90
3919;DHT22;1974;48.670;8.994;2024-01-07T03:07:37;4.80;99.90
3919;DHT22;1974;48.670;8.994;2024-01-07T03:10:05;4.80;99.90
3919;DHT22;1974;48.670;8.994;2024-01-07T03:12:32;4.90;99.90
3919;DHT22;1974;48.670;8.994;2024-01-07T03:14:59;4.80;99.90
3919;DHT22;1974;48.670;8.994;2024-01-07T03:17:27;4.80;99.90
3919;DHT22;1974;48.670;8.994;2024-01-07T03:19:53;4.80;99.90
3919;DHT22;1974;48.670;8.994;2024-01-07T03:22:20;4.80;99.90
3919;DHT22;1974;48.670;8.994;2024-01-07T03:24:47;4.80;99.90
3919;DHT22;1974;48.670;8.994;2024-01-07T03:27:13;4.80;99.90
3919;DHT22;1974;48.670;8.994;2024-01-07T03:29:40;4.80;99.90
3919;DHT22;1974;48.670;8.994;2024-01-07T03:32:07;4.90;99.90
3919;DHT22;1974;48.670;8.994;2024-01-07T03:34:35;4.90;99.90
3919;DHT22;1974;48.670;8.994;2024-01-07T03:37:01;4.80;99.90
3919;DHT22;1974;48.670;8.994;2024-01-07T03:39:28;4.80;99.90
3919;DHT22;1974;48.670;8.994;2024-01-07T03:41:55;4.70;99.90
3919;DHT22;1974;48.670;8.994;2024-01-07T03:44:22;4.70;99.90
3919;DHT22;1974;48.670;8.994;2024-01-07T03:46:49;4.70;99.90
3919;DHT22;1974;48.670;8.994;2024-01-07T03:49:16;4.70;99.90
3919;DHT22;1974;48.670;8.994;2024-01-07T03:51:45;4.70;99.90
3919;DHT22;1974;48.670;8.994;2024-01-07T03:54:11;4.70;99.90
3919;DHT22;1974;48.670;8.994;2024-01-07T03:56:38;4.70;99.90
3919;DHT22;1974;48.670;8.994;2024-01-07T03:59:05;4.70;99.90
3919;DHT22;1974;48.670;8.994;2024-01-07T04:01:32;4.70;99.90
3919;DHT22;1974;48.670;8.994;2024-01-07T04:03:59;4.60;99.90
3919;DHT22;1974;48.670;8.994;2024-01-07T04:06:26;4.60;99.90
3919;DHT22;1974;48.670;8.994;2024-01-07T04:08:53;4.60;99.90
3919;DHT22;1974;48.670;8.994;2024-01-07T04:11:20;4.60;99.90
3919;DHT22;1974;48.670;8.994;2024-01-07T04:13:47;4.50;99.90
3919;DHT22;1974;48.670;8.994;2024-01-07T04:16:17;4.50;99.90
3919;DHT22;1974;48.670;8.994;2024-01-07T04:18:44;4.50;99.90
3919;DHT22;1974;48.670;8.994;2024-01-07T04:21:11;4.50;99.90
3919;DHT22;1974;48.670;8.994;2024-01-07T04:23:39;4.50;99.90
3919;DHT22;1974;48.670;8.994;2024-01-07T04:26:07;4.40;99.90
3919;DHT22;1974;48.670;8.994;2024-01-07T04:28:34;4.40;99.90
3919;DHT22;1974;48.670;8.994;2024-01-07T04:31:01;4.50;99.90
3919;DHT22;1974;48.670;8.994;2024-01-07T04:33:27;4.50;99.90
3919;DHT22;1974;48.670;8.994;2024-01-07T04:35:54;4.40;99.90
3919;DHT22;1974;48.670;8.994;2024-01-07T04:38:23;4.40;99.90
3919;DHT22;1974;48.670;8.994;2024-01-07T04:40:50;4.30;99.90
3919;DHT22;1974;48.670;8.994;2024-01-07T04:43:18;4.30;99.90
3919;DHT22;1974;48.670;8.994;2024-01-07T04:45:46;4.30;99.90
3919;DHT22;1974;48.670;8.994;2024-01-07T04:48:13;4.30;99.90
3919;DHT22;1974;48.670;8.994;2024-01-07T04:50:40;4.40;99.90
3919;DHT22;1974;48.670;8.994;2024-01-07T04:53:07;4.30;99.90
3919;DHT22;1974;48.670;8.994;2024-01-07T04:55:34;4.30;99.90
3919;DHT22;1974;48.670;8.994;2024-01-07T04:57:59;4.40;99.90
3919;DHT22;1974;48.670;8.994;2024-01-07T05:00:28;4.40;99.90
3919;DHT22;1974;48.670;8.994;2024-01-07T05:02:54;4.40;99.90
3919;DHT22;1974;48.670;8.994;2024-01-07T05:05:21;4.40;99.90
3919;DHT22;1974;48.670;8.994;2024-01-07T05:07:48;4.40;99.90
3919;DHT22;1974;48.670;8.994;2024-01-07T05:10:15;4.40;99.90
3919;DHT22;1974;48.670;8.994;2024-01-07T05:12:42;4.40;99.90
3919;DHT22;1974;48.670;8.994;2024-01-07T05:15:08;4.40;99.90
3919;DHT22;1974;48.670;8.994;2024-01-07T05:17:37;4.40;99.90
3919;DHT22;1974;48.670;8.994;2024-01-07T05:20:04;4.30;99.90
3919;DHT22;1974;48.670;8.994;2024-01-07T05:22:32;4.40;99.90
3919;DHT22;1974;48.670;8.994;2024-01-07T05:25:00;4.30;99.90
3919;DHT22;1974;48.670;8.994;2024-01-07T05:27:27;4.20;99.90
3919;DHT22;1974;48.670;8.994;2024-01-07T05:29:54;4.20;99.90
3919;DHT22;1974;48.670;8.994;2024-01-07T05:32:21;4.30;99.90
3919;DHT22;1974;48.670;8.994;2024-01-07T05:34:49;4.20;99.90
3919;DHT22;1974;48.670;8.994;2024-01-07T05:37:16;4.20;99.90
3919;DHT22;1974;48.670;8.994;2024-01-07T05:39:43;4.20;99.90
3919;DHT22;1974;48.670;8.994;2024-01-07T05:42:09;4.10;99.90
3919;DHT22;1974;48.670;8.994;2024-01-07T05:44:36;4.10;99.90
3919;DHT22;1974;48.670;8.994;2024-01-07T05:47:03;4.10;99.90
3919;DHT22;1974;48.670;8.994;2024-01-07T05:49:30;4.20;99.90
3919;DHT22;1974;48.670;8.994;2024-01-07T05:51:58;4.10;99.90
3919;DHT22;1974;48.670;8.994;2024-01-07T05:54:24;4.10;99.90
3919;DHT22;1974;48.670;8.994;2024-01-07T05:56:51;4.10;99.90
3919;DHT22;1974;48.670;8.994;2024-01-07T05:59:18;4.10;99.90
3919;DHT22;1974;48.670;8.994;2024-01-07T06:01:45;4.00;99.90
3919;DHT22;1974;48.670;8.994;2024-01-07T06:04:12;4.00;99.90
3919;DHT22;1974;48.670;8.994;2024-01-07T06:06:38;4.00;99.90
3919;DHT22;1974;48.670;8.994;2024-01-07T06:09:06;3.90;99.90
3919;DHT22;1974;48.670;8.994;2024-01-07T06:11:33;4.00;99.90
3919;DHT22;1974;48.670;8.994;2024-01-07T06:14:00;3.80;99.90
3919;DHT22;1974;48.670;8.994;2024-01-07T06:16:27;3.80;99.90
3919;DHT22;1974;48.670;8.994;2024-01-07T06:18:53;3.80;99.90
3919;DHT22;1974;48.670;8.994;2024-01-07T06:21:20;3.80;99.90
3919;DHT22;1974;48.670;8.994;2024-01-07T06:23:47;3.80;99.90
3919;DHT22;1974;48.670;8.994;2024-01-07T06:26:15;3.80;99.90
3919;DHT22;1974;48.670;8.994;2024-01-07T06:28:41;3.80;99.90
3919;DHT22;1974;48.670;8.994;2024-01-07T06:31:08;3.80;99.90
3919;DHT22;1974;48.670;8.994;2024-01-07T06:33:35;3.70;99.90
3919;DHT22;1974;48.670;8.994;2024-01-07T06:36:01;3.70;99.90
3919;DHT22;1974;48.670;8.994;2024-01-07T06:38:29;3.70;99.90
3919;DHT22;1974;48.670;8.994;2024-01-07T06:40:56;3.70;99.90
3919;DHT22;1974;48.670;8.994;2024-01-07T06:43:27;3.70;99.90
3919;DHT22;1974;48.670;8.994;2024-01-07T06:45:54;3.70;99.90
3919;DHT22;1974;48.670;8.994;2024-01-07T06:48:21;3.70;99.90
3919;DHT22;1974;48.670;8.994;2024-01-07T06:50:47;3.70;99.90
3919;DHT22;1974;48.670;8.994;2024-01-07T06:53:14;3.70;99.90
3919;DHT22;1974;48.670;8.994;2024-01-07T06:55:42;3.70;99.90
3919;DHT22;1974;48.670;8.994;2024-01-07T06:58:08;3.70;99.90
3919;DHT22;1974;48.670;8.994;2024-01-07T07:00:36;3.80;99.90
3919;DHT22;1974;48.670;8.994;2024-01-07T07:03:03;3.80;99.90
3919;DHT22;1974;48.670;8.994;2024-01-07T07:05:30;3.80;99.90
3919;DHT22;1974;48.670;8.994;2024-01-07T07:07:57;3.70;99.90
3919;DHT22;1974;48.670;8.994;2024-01-07T07:10:24;3.80;99.90
3919;DHT22;1974;48.670;8.994;2024-01-07T07:12:50;3.60;99.90
3919;DHT22;1974;48.670;8.994;2024-01-07T07:15:17;3.70;99.90
3919;DHT22;1974;48.670;8.994;2024-01-07T07:17:45;3.60;99.90
3919;DHT22;1974;48.670;8.994;2024-01-07T07:20:12;3.60;99.90
3919;DHT22;1974;48.670;8.994;2024-01-07T07:22:39;3.60;99.90
3919;DHT22;1974;48.670;8.994;2024-01-07T07:25:06;3.50;99.90
3919;DHT22;1974;48.670;8.994;2024-01-07T07:27:33;3.50;99.90
3919;DHT22;1974;48.670;8.994;2024-01-07T07:30:00;3.50;99.90
3919;DHT22;1974;48.670;8.994;2024-01-07T07:32:26;3.40;99.90
3919;DHT22;1974;48.670;8.994;2024-01-07T07:34:54;3.40;99.90
3919;DHT22;1974;48.670;8.994;2024-01-07T07:37:21;3.40;99.90
3919;DHT22;1974;48.670;8.994;2024-01-07T07:39:48;3.50;99.90
3919;DHT22;1974;48.670;8.994;2024-01-07T07:42:15;3.40;99.90
3919;DHT22;1974;48.670;8.994;2024-01-07T07:44:42;3.50;99.90
3919;DHT22;1974;48.670;8.994;2024-01-07T07:47:09;3.40;99.90
3919;DHT22;1974;48.670;8.994;2024-01-07T07:49:37;3.40;99.90
3919;DHT22;1974;48.670;8.994;2024-01-07T07:52:07;3.40;99.90
3919;DHT22;1974;48.670;8.994;2024-01-07T07:54:34;3.40;99.90
3919;DHT22;1974;48.670;8.994;2024-01-07T07:57:00;3.40;99.90
3919;DHT22;1974;48.670;8.994;2024-01-07T07:59:27;3.40;99.90
3919;DHT22;1974;48.670;8.994;2024-01-07T08:01:54;3.30;99.90
3919;DHT22;1974;48.670;8.994;2024-01-07T08:04:21;3.20;99.90
3919;DHT22;1974;48.670;8.994;2024-01-07T08:06:47;3.20;99.90
3919;DHT22;1974;48.670;8.994;2024-01-07T08:09:15;3.20;99.90
3919;DHT22;1974;48.670;8.994;2024-01-07T08:11:42;3.20;99.90
3919;DHT22;1974;48.670;8.994;2024-01-07T08:14:09;3.30;99.90
3919;DHT22;1974;48.670;8.994;2024-01-07T08:16:35;3.30;99.90
3919;DHT22;1974;48.670;8.994;2024-01-07T08:19:03;3.10;99.90
3919;DHT22;1974;48.670;8.994;2024-01-07T08:21:29;3.20;99.90
3919;DHT22;1974;48.670;8.994;2024-01-07T08:23:56;3.10;99.90
3919;DHT22;1974;48.670;8.994;2024-01-07T08:26:24;3.10;99.90
3919;DHT22;1974;48.670;8.994;2024-01-07T08:28:50;3.10;99.90
3919;DHT22;1974;48.670;8.994;2024-01-07T08:31:17;3.00;99.90
3919;DHT22;1974;48.670;8.994;2024-01-07T08:33:44;3.00;99.90
3919;DHT22;1974;48.670;8.994;2024-01-07T08:36:11;2.90;99.90
3919;DHT22;1974;48.670;8.994;2024-01-07T08:38:38;2.90;99.90
3919;DHT22;1974;48.670;8.994;2024-01-07T08:41:04;2.90;99.90
3919;DHT22;1974;48.670;8.994;2024-01-07T08:43:32;3.00;99.90
3919;DHT22;1974;48.670;8.994;2024-01-07T08:45:59;3.00;99.90
3919;DHT22;1974;48.670;8.994;2024-01-07T08:48:26;3.00;99.90
3919;DHT22;1974;48.670;8.994;2024-01-07T08:50:52;3.00;99.90
3919;DHT22;1974;48.670;8.994;2024-01-07T08:53:19;3.00;99.90
3919;DHT22;1974;48.670;8.994;2024-01-07T08:55:47;2.90;99.90
3919;DHT22;1974;48.670;8.994;2024-01-07T08:58:15;3.00;99.90
3919;DHT22;1974;48.670;8.994;2024-01-07T09:00:43;3.10;99.90
3919;DHT22;1974;48.670;8.994;2024-01-07T09:03:10;3.10;99.90
3919;DHT22;1974;48.670;8.994;2024-01-07T09:05:37;3.20;99.90
3919;DHT22;1974;48.670;8.994;2024-01-07T09:08:04;3.20;99.90
3919;DHT22;1974;48.670;8.994;2024-01-07T09:10:32;3.10;99.90
3919;DHT22;1974;48.670;8.994;2024-01-07T09:12:59;3.00;99.90
3919;DHT22;1974;48.670;8.994;2024-01-07T09:15:25;3.00;99.90
3919;DHT22;1974;48.670;8.994;2024-01-07T09:17:53;3.00;99.90
3919;DHT22;1974;48.670;8.994;2024-01-07T09:20:20;3.00;99.90
3919;DHT22;1974;48.670;8.994;2024-01-07T09:22:47;3.10;99.90
3919;DHT22;1974;48.670;8.994;2024-01-07T09:25:13;3.10;99.90
3919;DHT22;1974;48.670;8.994;2024-01-07T09:27:40;3.10;99.90
3919;DHT22;1974;48.670;8.994;2024-01-07T09:30:09;3.10;99.90
3919;DHT22;1974;48.670;8.994;2024-01-07T09:32:39;3.10;99.90
3919;DHT22;1974;48.670;8.994;2024-01-07T09:35:08;3.10;99.90
3919;DHT22;1974;48.670;8.994;2024-01-07T09:37:34;3.00;99.90
3919;DHT22;1974;48.670;8.994;2024-01-07T09:40:02;3.10;99.90
3919;DHT22;1974;48.670;8.994;2024-01-07T09:42:31;3.00;99.90
3919;DHT22;1974;48.670;8.994;2024-01-07T09:44:59;3.00;99.90
3919;DHT22;1974;48.670;8.994;2024-01-07T09:47:28;3.00;99.90
3919;DHT22;1974;48.670;8.994;2024-01-07T09:49:55;3.00;99.90
3919;DHT22;1974;48.670;8.994;2024-01-07T09:52:24;3.10;99.90
3919;DHT22;1974;48.670;8.994;2024-01-07T09:54:55;3.10;99.90
3919;DHT22;1974;48.670;8.994;2024-01-07T09:57:24;3.20;99.90
3919;DHT22;1974;48.670;8.994;2024-01-07T09:59:51;3.30;99.90
3919;DHT22;1974;48.670;8.994;2024-01-07T10:02:18;3.40;99.90
3919;DHT22;1974;48.670;8.994;2024-01-07T10:04:46;3.50;99.90
3919;DHT22;1974;48.670;8.994;2024-01-07T10:07:13;3.40;99.90
3919;DHT22;1974;48.670;8.994;2024-01-07T10:09:41;3.40;99.90
3919;DHT22;1974;48.670;8.994;2024-01-07T10:12:09;3.50;99.90
3919;DHT22;1974;48.670;8.994;2024-01-07T10:14:38;3.50;99.90
3919;DHT22;1974;48.670;8.994;2024-01-07T10:17:14;3.60;99.90
3919;DHT22;1974;48.670;8.994;2024-01-07T10:19:43;3.50;99.90
3919;DHT22;1974;48.670;8.994;2024-01-07T10:22:12;3.40;99.90
3919;DHT22;1974;48.670;8.994;2024-01-07T10:24:41;3.40;99.90
3919;DHT22;1974;48.670;8.994;2024-01-07T10:27:09;3.30;99.90
3919;DHT22;1974;48.670;8.994;2024-01-07T10:29:36;3.30;99.90
3919;DHT22;1974;48.670;8.994;2024-01-07T10:32:04;3.30;99.90
3919;DHT22;1974;48.670;8.994;2024-01-07T10:34:32;3.30;99.90
3919;DHT22;1974;48.670;8.994;2024-01-07T10:36:59;3.20;99.90
3919;DHT22;1974;48.670;8.994;2024-01-07T10:39:26;3.20;99.90
3919;DHT22;1974;48.670;8.994;2024-01-07T10:41:56;3.20;99.90
3919;DHT22;1974;48.670;8.994;2024-01-07T10:44:25;3.20;99.90
3919;DHT22;1974;48.670;8.994;2024-01-07T10:46:53;3.20;99.90
3919;DHT22;1974;48.670;8.994;2024-01-07T10:49:22;3.30;99.90
3919;DHT22;1974;48.670;8.994;2024-01-07T10:52:02;3.20;99.90
3919;DHT22;1974;48.670;8.994;2024-01-07T10:54:31;3.20;99.90
3919;DHT22;1974;48.670;8.994;2024-01-07T10:57:07;3.20;99.90
3919;DHT22;1974;48.670;8.994;2024-01-07T10:59:36;3.10;99.90
3919;DHT22;1974;48.670;8.994;2024-01-07T11:02:03;3.20;99.90
3919;DHT22;1974;48.670;8.994;2024-01-07T11:04:37;3.10;99.90
3919;DHT22;1974;48.670;8.994;2024-01-07T11:07:22;3.10;99.90
3919;DHT22;1974;48.670;8.994;2024-01-07T11:09:56;3.20;99.90
3919;DHT22;1974;48.670;8.994;2024-01-07T11:12:31;3.10;99.90
3919;DHT22;1974;48.670;8.994;2024-01-07T11:14:58;3.10;99.90
3919;DHT22;1974;48.670;8.994;2024-01-07T11:17:41;3.00;99.90
3919;DHT22;1974;48.670;8.994;2024-01-07T11:20:19;2.90;99.90
3919;DHT22;1974;48.670;8.994;2024-01-07T11:22:46;2.90;99.90
3919;DHT22;1974;48.670;8.994;2024-01-07T11:25:29;2.90;99.90
3919;DHT22;1974;48.670;8.994;2024-01-07T11:28:01;2.80;99.90
3919;DHT22;1974;48.670;8.994;2024-01-07T11:30:27;2.70;99.90
3919;DHT22;1974;48.670;8.994;2024-01-07T11:32:58;2.60;99.90
3919;DHT22;1974;48.670;8.994;2024-01-07T11:35:55;2.60;99.90
3919;DHT22;1974;48.670;8.994;2024-01-07T11:38:23;2.50;99.90
3919;DHT22;1974;48.670;8.994;2024-01-07T11:40:50;2.50;99.90
3919;DHT22;1974;48.670;8.994;2024-01-07T11:43:18;2.50;99.90
3919;DHT22;1974;48.670;8.994;2024-01-07T11:45:46;2.50;99.90
3919;DHT22;1974;48.670;8.994;2024-01-07T11:48:13;2.50;99.90
3919;DHT22;1974;48.670;8.994;2024-01-07T11:50:39;2.50;99.90
3919;DHT22;1974;48.670;8.994;2024-01-07T11:53:07;2.60;99.90
3919;DHT22;1974;48.670;8.994;2024-01-07T11:55:35;2.50;99.90
3919;DHT22;1974;48.670;8.994;2024-01-07T11:58:02;2.60;99.90
3919;DHT22;1974;48.670;8.994;2024-01-07T12:00:32;2.60;99.90
3919;DHT22;1974;48.670;8.994;2024-01-07T12:02:59;2.60;99.90
3919;DHT22;1974;48.670;8.994;2024-01-07T12:05:26;2.60;99.90
3919;DHT22;1974;48.670;8.994;2024-01-07T12:07:53;2.60;99.90
3919;DHT22;1974;48.670;8.994;2024-01-07T12:10:20;2.60;99.90
3919;DHT22;1974;48.670;8.994;2024-01-07T12:12:47;2.60;99.90
3919;DHT22;1974;48.670;8.994;2024-01-07T12:15:14;2.70;99.90
3919;DHT22;1974;48.670;8.994;2024-01-07T12:17:47;2.60;99.90
3919;DHT22;1974;48.670;8.994;2024-01-07T12:20:20;2.70;99.90
3919;DHT22;1974;48.670;8.994;2024-01-07T12:22:47;2.70;99.90
3919;DHT22;1974;48.670;8.994;2024-01-07T12:25:21;2.70;99.90
3919;DHT22;1974;48.670;8.994;2024-01-07T12:27:48;2.70;99.90
3919;DHT22;1974;48.670;8.994;2024-01-07T12:30:18;2.70;99.90
3919;DHT22;1974;48.670;8.994;2024-01-07T12:32:46;2.60;99.90
3919;DHT22;1974;48.670;8.994;2024-01-07T12:35:13;2.60;99.90
3919;DHT22;1974;48.670;8.994;2024-01-07T12:37:41;2.60;99.90
3919;DHT22;1974;48.670;8.994;2024-01-07T12:40:09;2.60;99.90
3919;DHT22;1974;48.670;8.994;2024-01-07T12:42:37;2.50;99.90
3919;DHT22;1974;48.670;8.994;2024-01-07T12:45:06;2.50;99.90
3919;DHT22;1974;48.670;8.994;2024-01-07T12:47:33;2.60;99.90
3919;DHT22;1974;48.670;8.994;2024-01-07T12:50:03;2.60;99.90
3919;DHT22;1974;48.670;8.994;2024-01-07T12:52:39;2.60;99.90
3919;DHT22;1974;48.670;8.994;2024-01-07T12:55:07;2.70;99.90
3919;DHT22;1974;48.670;8.994;2024-01-07T12:57:34;2.60;99.90
3919;DHT22;1974;48.670;8.994;2024-01-07T13:00:01;2.60;99.90
3919;DHT22;1974;48.670;8.994;2024-01-07T13:02:30;2.60;99.90
3919;DHT22;1974;48.670;8.994;2024-01-07T13:04:57;2.60;99.90
3919;DHT22;1974;48.670;8.994;2024-01-07T13:07:25;2.50;99.90
3919;DHT22;1974;48.670;8.994;2024-01-07T13:09:51;2.50;99.90
3919;DHT22;1974;48.670;8.994;2024-01-07T13:12:18;2.40;99.90
3919;DHT22;1974;48.670;8.994;2024-01-07T13:17:52;2.30;99.90
3919;DHT22;1974;48.670;8.994;2024-01-07T13:20:29;2.30;99.90
3919;DHT22;1974;48.670;8.994;2024-01-07T13:22:57;2.30;99.90
3919;DHT22;1974;48.670;8.994;2024-01-07T13:25:25;2.30;99.90
3919;DHT22;1974;48.670;8.994;2024-01-07T13:28:11;2.30;99.90
3919;DHT22;1974;48.670;8.994;2024-01-07T13:30:40;2.20;99.90
3919;DHT22;1974;48.670;8.994;2024-01-07T13:33:10;2.30;99.90
3919;DHT22;1974;48.670;8.994;2024-01-07T13:35:38;2.20;99.90
3919;DHT22;1974;48.670;8.994;2024-01-07T13:38:12;2.20;99.90
3919;DHT22;1974;48.670;8.994;2024-01-07T13:40:58;2.20;99.90
3919;DHT22;1974;48.670;8.994;2024-01-07T13:49:24;2.20;99.90
3919;DHT22;1974;48.670;8.994;2024-01-07T13:52:08;2.20;99.90
3919;DHT22;1974;48.670;8.994;2024-01-07T13:54:52;2.20;99.90
3919;DHT22;1974;48.670;8.994;2024-01-07T13:57:31;2.10;99.90
3919;DHT22;1974;48.670;8.994;2024-01-07T14:00:12;2.00;99.90
3919;DHT22;1974;48.670;8.994;2024-01-07T14:02:58;1.90;99.90
3919;DHT22;1974;48.670;8.994;2024-01-07T14:05:33;2.00;99.90
3919;DHT22;1974;48.670;8.994;2024-01-07T14:08:09;1.90;99.90
3919;DHT22;1974;48.670;8.994;2024-01-07T14:10:50;1.80;99.90
3919;DHT22;1974;48.670;8.994;2024-01-07T14:13:36;1.90;99.90
3919;DHT22;1974;48.670;8.994;2024-01-07T14:16:12;1.60;99.90
3919;DHT22;1974;48.670;8.994;2024-01-07T14:18:43;1.60;99.90
3919;DHT22;1974;48.670;8.994;2024-01-07T14:21:15;1.50;99.90
3919;DHT22;1974;48.670;8.994;2024-01-07T14:23:42;1.40;99.90
3919;DHT22;1974;48.670;8.994;2024-01-07T14:26:10;1.40;99.90
3919;DHT22;1974;48.670;8.994;2024-01-07T14:28:37;1.40;99.90
3919;DHT22;1974;48.670;8.994;2024-01-07T14:31:03;1.30;99.90
3919;DHT22;1974;48.670;8.994;2024-01-07T14:33:30;1.30;99.90
3919;DHT22;1974;48.670;8.994;2024-01-07T14:35:57;1.30;99.90
3919;DHT22;1974;48.670;8.994;2024-01-07T14:38:23;1.30;99.90
3919;DHT22;1974;48.670;8.994;2024-01-07T14:40:51;1.30;99.90
3919;DHT22;1974;48.670;8.994;2024-01-07T14:43:19;1.20;99.90
3919;DHT22;1974;48.670;8.994;2024-01-07T14:45:46;1.20;99.90
3919;DHT22;1974;48.670;8.994;2024-01-07T14:48:12;1.20;99.90
3919;DHT22;1974;48.670;8.994;2024-01-07T14:50:39;1.20;99.90
3919;DHT22;1974;48.670;8.994;2024-01-07T14:53:06;1.20;99.90
3919;DHT22;1974;48.670;8.994;2024-01-07T14:55:33;1.20;99.90
3919;DHT22;1974;48.670;8.994;2024-01-07T14:57:59;1.20;99.90
3919;DHT22;1974;48.670;8.994;2024-01-07T15:00:28;1.10;99.90
3919;DHT22;1974;48.670;8.994;2024-01-07T15:02:54;1.10;99.90
3919;DHT22;1974;48.670;8.994;2024-01-07T15:05:21;1.20;99.90
3919;DHT22;1974;48.670;8.994;2024-01-07T15:07:48;1.20;99.90
3919;DHT22;1974;48.670;8.994;2024-01-07T15:10:16;1.10;99.90
3919;DHT22;1974;48.670;8.994;2024-01-07T15:12:43;1.10;99.90
3919;DHT22;1974;48.670;8.994;2024-01-07T15:15:10;1.10;99.90
3919;DHT22;1974;48.670;8.994;2024-01-07T15:17:38;1.10;99.90
3919;DHT22;1974;48.670;8.994;2024-01-07T15:20:07;1.00;99.90
3919;DHT22;1974;48.670;8.994;2024-01-07T15:22:34;0.90;99.90
3919;DHT22;1974;48.670;8.994;2024-01-07T15:25:01;0.80;99.90
3919;DHT22;1974;48.670;8.994;2024-01-07T15:27:28;0.80;99.90
3919;DHT22;1974;48.670;8.994;2024-01-07T15:29:56;0.70;99.90
3919;DHT22;1974;48.670;8.994;2024-01-07T15:32:23;0.70;99.90
3919;DHT22;1974;48.670;8.994;2024-01-07T15:34:53;0.60;99.90
3919;DHT22;1974;48.670;8.994;2024-01-07T15:37:19;0.70;99.90
3919;DHT22;1974;48.670;8.994;2024-01-07T15:39:46;0.70;99.90
3919;DHT22;1974;48.670;8.994;2024-01-07T15:42:13;0.70;99.90
3919;DHT22;1974;48.670;8.994;2024-01-07T15:44:40;0.70;99.90
3919;DHT22;1974;48.670;8.994;2024-01-07T15:47:07;0.70;99.90
3919;DHT22;1974;48.670;8.994;2024-01-07T15:49:34;0.60;99.90
3919;DHT22;1974;48.670;8.994;2024-01-07T15:52:02;0.40;99.90
3919;DHT22;1974;48.670;8.994;2024-01-07T15:54:30;0.40;99.90
3919;DHT22;1974;48.670;8.994;2024-01-07T15:56:57;0.50;99.90
3919;DHT22;1974;48.670;8.994;2024-01-07T15:59:24;0.50;99.90
3919;DHT22;1974;48.670;8.994;2024-01-07T16:01:51;0.60;99.90
3919;DHT22;1974;48.670;8.994;2024-01-07T16:04:17;0.60;99.90
3919;DHT22;1974;48.670;8.994;2024-01-07T16:06:44;0.70;99.90
3919;DHT22;1974;48.670;8.994;2024-01-07T16:09:12;0.70;99.90
3919;DHT22;1974;48.670;8.994;2024-01-07T16:11:39;0.70;99.90
3919;DHT22;1974;48.670;8.994;2024-01-07T16:14:07;0.70;99.90
3919;DHT22;1974;48.670;8.994;2024-01-07T16:16:34;0.70;99.90
3919;DHT22;1974;48.670;8.994;2024-01-07T16:19:03;0.70;99.90
3919;DHT22;1974;48.670;8.994;2024-01-07T16:21:30;0.60;99.90
3919;DHT22;1974;48.670;8.994;2024-01-07T16:23:56;0.70;99.90
3919;DHT22;1974;48.670;8.994;2024-01-07T16:26:24;0.60;99.90
3919;DHT22;1974;48.670;8.994;2024-01-07T16:28:51;0.70;99.90
3919;DHT22;1974;48.670;8.994;2024-01-07T16:31:18;0.60;99.90